Time;durP1;ratioP1;P1;durP2;ratioP2;P2;SDS_P1;SDS_P2;PMS_P1;PMS_P2;Temp;Humidity;BMP_temperature;BMP_pressure;BME280_temperature;BME280_humidity;BME280_pressure;Samples;Min_cycle;Max_cycle;Signal;HPM_P1;HPM_P2
2021/03/09 00:01:41;;;;;;;39.78;20.63;;;51.90;1945.60;;;;;;5101204;28;20150;-53
2021/03/09 00:04:06;;;;;;;43.15;23.08;;;51.60;1996.80;;;;;;5099747;28;20043;-49
2021/03/09 00:06:32;;;;;;;72.30;33.08;;;51.50;2022.40;;;;;;5101561;28;20026;-50
2021/03/09 00:08:58;;;;;;;56.10;26.65;;;51.60;2022.40;;;;;;5100145;28;20024;-51
2021/03/09 00:11:23;;;;;;;65.63;32.58;;;51.60;1996.80;;;;;;5100138;28;20078;-56
2021/03/09 00:13:49;;;;;;;37.28;20.70;;;51.70;1971.20;;;;;;5104072;28;20024;-52
2021/03/09 00:16:15;;;;;;;32.63;19.35;;;51.60;1996.80;;;;;;5112160;28;20035;-51
2021/03/09 00:18:40;;;;;;;81.90;37.47;;;51.50;2048.00;;;;;;5112135;28;20106;-52
2021/03/09 00:21:06;;;;;;;414.77;193.27;;;51.40;2048.00;;;;;;5112416;28;20378;-51
2021/03/09 00:23:31;;;;;;;135.07;64.55;;;51.60;1996.80;;;;;;5111850;28;20441;-56
2021/03/09 00:25:57;;;;;;;217.80;102.97;;;51.70;1996.80;;;;;;5111603;28;20032;-53
2021/03/09 00:28:23;;;;;;;58.67;28.98;;;51.80;1971.20;;;;;;5112021;28;20020;-54
2021/03/09 00:30:49;;;;;;;203.98;96.65;;;51.70;1996.80;;;;;;5111856;28;20055;-55
2021/03/09 00:33:14;;;;;;;83.13;38.78;;;51.70;1996.80;;;;;;5112137;28;20015;-55
2021/03/09 00:35:40;;;;;;;50.28;26.88;;;51.70;1996.80;;;;;;5111797;28;20053;-53
2021/03/09 00:38:06;;;;;;;49.85;27.67;;;51.60;1996.80;;;;;;5111832;28;20117;-54
2021/03/09 00:40:31;;;;;;;44.78;24.10;;;51.60;1996.80;;;;;;5111616;28;20034;-53
2021/03/09 00:42:57;;;;;;;234.95;120.45;;;51.30;2048.00;;;;;;5111982;28;20104;-52
2021/03/09 00:45:23;;;;;;;177.05;94.40;;;51.40;2022.40;;;;;;5111688;28;20575;-55
2021/03/09 00:47:48;;;;;;;242.15;112.55;;;51.50;1996.80;;;;;;5111319;28;20076;-53
2021/03/09 00:50:14;;;;;;;190.93;97.43;;;51.70;1971.20;;;;;;5111789;28;20022;-56
2021/03/09 00:52:40;;;;;;;160.60;82.68;;;51.70;1971.20;;;;;;5111255;28;20023;-51
2021/03/09 00:55:07;;;;;;;58.33;34.05;;;51.70;1971.20;;;;;;5111338;28;20418;-53
2021/03/09 00:57:32;;;;;;;47.40;25.45;;;51.70;1971.20;;;;;;5111394;28;20428;-55
2021/03/09 00:59:58;;;;;;;155.38;79.72;;;51.60;1996.80;;;;;;5111302;28;20027;-52
2021/03/09 01:02:24;;;;;;;100.82;49.95;;;51.70;1945.60;;;;;;5111306;28;20023;-53
2021/03/09 01:04:50;;;;;;;109.13;58.60;;;51.80;1945.60;;;;;;5110985;28;20034;-51
2021/03/09 01:07:15;;;;;;;135.57;71.03;;;51.90;1920.00;;;;;;5111318;28;20023;-48
2021/03/09 01:09:41;;;;;;;52.72;27.42;;;52.10;1894.40;;;;;;5111017;28;20228;-54
2021/03/09 01:12:07;;;;;;;57.40;32.53;;;51.90;1945.60;;;;;;5111377;28;20366;-54
2021/03/09 01:14:33;;;;;;;35.83;23.55;;;51.80;1971.20;;;;;;5111238;28;20032;-53
2021/03/09 01:16:58;;;;;;;38.92;22.00;;;51.70;1971.20;;;;;;5110728;28;20092;-53
2021/03/09 01:19:24;;;;;;;71.05;33.53;;;51.60;1996.80;;;;;;5111034;28;20072;-53
2021/03/09 01:21:50;;;;;;;40.17;22.00;;;51.60;1971.20;;;;;;5110857;28;20023;-56
2021/03/09 01:24:16;;;;;;;34.47;20.63;;;51.70;1971.20;;;;;;5110803;28;20032;-50
2021/03/09 01:26:41;;;;;;;66.53;33.88;;;51.30;2022.40;;;;;;5110516;28;20393;-52
2021/03/09 01:29:07;;;;;;;33.53;19.02;;;51.30;2022.40;;;;;;5111404;28;20015;-53
2021/03/09 01:31:33;;;;;;;91.35;50.22;;;51.40;1996.80;;;;;;5111024;28;20415;-51
2021/03/09 01:33:58;;;;;;;28.80;18.63;;;51.40;2022.40;;;;;;5110592;28;20465;-52
2021/03/09 01:36:24;;;;;;;30.35;17.40;;;51.30;2048.00;;;;;;5110932;28;20035;-55
2021/03/09 01:38:50;;;;;;;30.48;17.95;;;51.20;2048.00;;;;;;5110600;28;20485;-52
2021/03/09 01:41:15;;;;;;;39.38;23.73;;;26.50;2022.40;;;;;;5110652;28;20497;-51
2021/03/09 01:43:41;;;;;;;34.30;19.42;;;26.30;2048.00;;;;;;5110863;28;20027;-52
2021/03/09 01:46:07;;;;;;;44.50;24.13;;;26.20;2073.60;;;;;;5110831;28;20533;-54
2021/03/09 01:48:44;;;;;;;59.25;32.47;;;26.50;2022.40;;;;;;5110621;28;20024;-51
2021/03/09 01:51:12;;;;;;;96.90;59.90;;;51.20;2048.00;;;;;;5110274;28;20046;-53
2021/03/09 01:53:37;;;;;;;86.38;50.65;;;51.30;2022.40;;;;;;5110672;28;20525;-50
2021/03/09 01:56:03;;;;;;;62.05;37.80;;;51.50;1971.20;;;;;;5110224;28;20036;-51
2021/03/09 01:58:32;;;;;;;44.35;26.63;;;51.60;1971.20;;;;;;5110500;28;20034;-52
2021/03/09 02:00:57;;;;;;;50.22;27.42;;;51.60;1971.20;;;;;;5110587;28;20476;-51
2021/03/09 02:03:23;;;;;;;57.85;30.63;;;51.50;1971.20;;;;;;5110708;28;20024;-51
2021/03/09 02:05:49;;;;;;;55.13;31.88;;;51.50;1971.20;;;;;;5110280;28;20107;-53
2021/03/09 02:08:15;;;;;;;53.35;31.85;;;51.60;1945.60;;;;;;5110480;28;20031;-54
2021/03/09 02:10:41;;;;;;;55.55;36.22;;;51.70;1945.60;;;;;;5110221;28;20028;-53
2021/03/09 02:13:36;;;;;;;41.65;24.02;;;51.80;1945.60;;;;;;5110876;28;20115;-50
2021/03/09 02:16:13;;;;;;;37.25;18.50;;;51.80;1945.60;;;;;;5047424;28;20407;-52
2021/03/09 02:19:09;;;;;;;30.05;16.83;;;51.60;1971.20;;;;;;5047433;28;20537;-54
2021/03/09 02:22:13;;;;;;;33.15;16.88;;;51.30;1996.80;;;;;;5047850;28;20028;-52
2021/03/09 02:24:58;;;;;;;29.75;16.95;;;26.40;2022.40;;;;;;5046758;28;20403;-51
2021/03/09 02:27:26;;;;;;;38.30;20.95;;;26.20;2048.00;;;;;;5047529;28;20052;-55
2021/03/09 02:30:16;;;;;;;74.13;42.30;;;26.40;2022.40;;;;;;5047459;28;20033;-51
2021/03/09 02:32:48;;;;;;;58.30;35.35;;;26.50;1996.80;;;;;;5047250;28;20033;-52
2021/03/09 02:35:18;;;;;;;54.65;32.85;;;51.20;2022.40;;;;;;5047517;28;20025;-52
2021/03/09 02:37:45;;;;;;;34.38;20.48;;;51.40;1971.20;;;;;;5049152;28;20360;-50
2021/03/09 02:40:13;;;;;;;31.15;18.80;;;51.40;1996.80;;;;;;5051336;28;20037;-51
2021/03/09 02:42:46;;;;;;;34.03;18.80;;;51.50;1971.20;;;;;;5051206;28;20082;-52
2021/03/09 02:45:15;;;;;;;31.60;17.60;;;51.40;1996.80;;;;;;5051014;28;20049;-50
2021/03/09 02:47:47;;;;;;;41.33;26.08;;;51.40;1971.20;;;;;;5051050;28;20068;-52
2021/03/09 02:50:14;;;;;;;35.30;20.00;;;51.50;1971.20;;;;;;5051273;28;20542;-51
2021/03/09 02:52:42;;;;;;;58.47;36.50;;;51.20;2022.40;;;;;;5088850;28;20039;-49
2021/03/09 02:55:11;;;;;;;48.22;26.40;;;26.50;1996.80;;;;;;5113753;28;20035;-50
2021/03/09 02:57:40;;;;;;;31.45;18.98;;;26.50;1996.80;;;;;;5113915;28;20048;-51
2021/03/09 03:00:07;;;;;;;83.32;47.28;;;51.20;1996.80;;;;;;5113983;28;20513;-50
2021/03/09 03:02:36;;;;;;;76.35;46.15;;;51.30;1971.20;;;;;;5113821;28;20393;-52
2021/03/09 03:05:02;;;;;;;53.33;31.75;;;51.30;1971.20;;;;;;5113520;28;20108;-51
2021/03/09 03:07:32;;;;;;;38.58;21.48;;;51.30;1996.80;;;;;;5113430;28;20077;-50
2021/03/09 03:09:59;;;;;;;75.45;40.45;;;26.50;1996.80;;;;;;5113271;28;20542;-52
2021/03/09 03:12:29;;;;;;;33.08;19.00;;;26.50;1996.80;;;;;;5113762;28;20051;-50
2021/03/09 03:14:56;;;;;;;37.88;21.33;;;26.10;2073.60;;;;;;5113806;28;20062;-51
2021/03/09 03:17:23;;;;;;;31.90;17.75;;;26.00;2099.20;;;;;;5113276;28;20039;-51
2021/03/09 03:19:51;;;;;;;50.92;29.08;;;25.90;2124.80;;;;;;5113300;28;20055;-50
2021/03/09 03:22:18;;;;;;;37.40;18.67;;;26.10;2073.60;;;;;;5113531;28;20477;-50
2021/03/09 03:24:46;;;;;;;35.42;20.00;;;26.10;2073.60;;;;;;5113186;28;20043;-53
2021/03/09 03:27:16;;;;;;;29.10;18.60;;;26.30;2048.00;;;;;;5113208;28;20534;-52
2021/03/09 03:29:41;;;;;;;81.60;43.72;;;26.40;1996.80;;;;;;5113106;28;20480;-51
2021/03/09 03:32:08;;;;;;;91.55;52.33;;;51.20;2022.40;;;;;;5113412;28;20107;-50
2021/03/09 03:34:34;;;;;;;110.50;57.60;;;51.30;1996.80;;;;;;5113506;28;20024;-50
2021/03/09 03:37:00;;;;;;;57.25;31.20;;;51.40;1971.20;;;;;;5113216;28;20028;-53
2021/03/09 03:39:26;;;;;;;44.20;24.88;;;51.40;1971.20;;;;;;5113373;28;20051;-53
2021/03/09 03:41:52;;;;;;;30.45;19.63;;;51.50;1945.60;;;;;;5094337;28;20058;-54
2021/03/09 03:44:18;;;;;;;29.48;18.70;;;51.60;1945.60;;;;;;5112687;28;20386;-52
2021/03/09 03:46:43;;;;;;;55.88;30.75;;;51.70;1945.60;;;;;;5112924;28;20031;-51
2021/03/09 03:49:10;;;;;;;35.13;16.95;;;51.70;1920.00;;;;;;5112425;28;20028;-51
2021/03/09 03:51:43;;;;;;;48.08;26.88;;;51.70;1920.00;;;;;;5113067;28;20530;-51
2021/03/09 03:54:27;;;;;;;52.72;29.10;;;51.70;1945.60;;;;;;5112441;28;20489;-50
2021/03/09 03:56:52;;;;;;;;;;;51.60;1971.20;;;;;;5113102;28;20505;-50
2021/03/09 03:59:38;;;;;;;102.90;52.20;;;51.70;1971.20;;;;;;5112438;28;19904;-54
2021/03/09 04:02:07;;;;;;;48.17;29.35;;;51.60;1971.20;;;;;;5112575;28;20023;-50
2021/03/09 04:04:36;;;;;;;76.75;38.13;;;51.50;1996.80;;;;;;5112453;28;20023;-52
2021/03/09 04:07:04;;;;;;;55.05;27.40;;;51.50;1971.20;;;;;;5112412;28;20179;-49
2021/03/09 04:09:30;;;;;;;66.95;32.45;;;51.40;1996.80;;;;;;5112341;28;20030;-51
2021/03/09 04:11:56;;;;;;;42.95;26.40;;;51.50;1996.80;;;;;;5094655;28;20367;-51
2021/03/09 04:14:23;;;;;;;66.90;37.17;;;51.50;1996.80;;;;;;5112319;28;20020;-51
2021/03/09 04:16:53;;;;;;;44.78;26.67;;;51.40;1996.80;;;;;;5111985;28;20055;-51
2021/03/09 04:19:22;;;;;;;45.47;24.33;;;51.30;2022.40;;;;;;5111970;28;20027;-51
2021/03/09 04:21:49;;;;;;;45.05;25.77;;;51.30;1996.80;;;;;;5112427;28;20027;-51
2021/03/09 04:24:16;;;;;;;64.70;51.05;;;51.30;1996.80;;;;;;5111870;28;20080;-50
2021/03/09 04:26:44;;;;;;;31.92;20.23;;;51.30;1996.80;;;;;;5111909;28;20500;-50
2021/03/09 04:29:11;;;;;;;29.08;17.52;;;51.30;1996.80;;;;;;5111719;28;20106;-51
2021/03/09 04:31:38;;;;;;;26.33;16.52;;;26.50;1996.80;;;;;;5112393;28;20088;-50
2021/03/09 04:34:04;;;;;;;24.35;14.07;;;26.50;1971.20;;;;;;5112041;28;20505;-51
2021/03/09 04:36:31;;;;;;;28.27;15.48;;;26.10;2022.40;;;;;;5111730;28;20020;-54
2021/03/09 04:38:57;;;;;;;32.35;16.65;;;26.20;2022.40;;;;;;5112319;28;20479;-52
2021/03/09 04:41:23;;;;;;;27.80;16.77;;;26.00;2073.60;;;;;;5112053;28;20023;-50
2021/03/09 04:43:49;;;;;;;41.38;22.02;;;26.10;2048.00;;;;;;5111633;28;20389;-50
2021/03/09 04:46:15;;;;;;;37.33;22.50;;;26.30;2022.40;;;;;;5111723;28;20027;-51
2021/03/09 04:48:41;;;;;;;34.63;21.50;;;26.40;2022.40;;;;;;5111536;28;20020;-50
2021/03/09 04:51:10;;;;;;;33.63;18.77;;;26.50;2022.40;;;;;;5111744;28;20032;-54
2021/03/09 04:53:37;;;;;;;36.60;20.05;;;51.20;2022.40;;;;;;5111589;28;20411;-53
2021/03/09 04:56:03;;;;;;;35.63;21.05;;;51.20;2022.40;;;;;;5111340;28;20101;-52
2021/03/09 04:58:29;;;;;;;41.85;25.02;;;51.30;1996.80;;;;;;5110970;28;20397;-53
2021/03/09 05:00:56;;;;;;;41.30;24.70;;;51.40;1996.80;;;;;;5110848;28;20031;-52
2021/03/09 05:03:23;;;;;;;54.17;30.42;;;51.50;1971.20;;;;;;5111452;28;20403;-50
2021/03/09 05:05:50;;;;;;;50.60;28.52;;;51.60;1996.80;;;;;;5111373;28;20546;-52
2021/03/09 05:08:16;;;;;;;48.95;28.20;;;51.50;2022.40;;;;;;5111295;28;20020;-51
2021/03/09 05:10:41;;;;;;;41.63;23.83;;;51.40;2022.40;;;;;;5111107;28;20027;-51
2021/03/09 05:13:07;;;;;;;37.08;20.98;;;51.40;2022.40;;;;;;5111385;28;20022;-53
2021/03/09 05:15:33;;;;;;;34.00;20.30;;;51.40;1996.80;;;;;;5092702;28;20043;-50
2021/03/09 05:17:59;;;;;;;38.70;22.75;;;51.50;1996.80;;;;;;5111144;28;20031;-50
2021/03/09 05:20:25;;;;;;;35.65;22.30;;;51.50;1996.80;;;;;;5111393;28;20055;-52
2021/03/09 05:22:51;;;;;;;37.50;20.40;;;51.40;1996.80;;;;;;5111179;28;20034;-54
2021/03/09 05:25:17;;;;;;;42.17;22.80;;;51.30;2022.40;;;;;;5111101;28;20086;-55
2021/03/09 05:27:45;;;;;;;38.63;20.50;;;51.40;2022.40;;;;;;5110973;28;20373;-54
2021/03/09 05:30:13;;;;;;;36.38;19.98;;;51.40;1996.80;;;;;;5110800;28;20099;-55
2021/03/09 05:32:39;;;;;;;32.42;20.92;;;51.50;1971.20;;;;;;5110876;28;20081;-51
2021/03/09 05:35:06;;;;;;;37.08;19.50;;;51.60;1971.20;;;;;;5111036;28;20028;-51
2021/03/09 05:37:33;;;;;;;34.63;18.95;;;51.80;1971.20;;;;;;5110685;28;20051;-51
2021/03/09 05:39:58;;;;;;;34.40;17.27;;;51.80;1971.20;;;;;;5110775;28;20027;-50
2021/03/09 05:42:24;;;;;;;32.55;17.95;;;51.90;1945.60;;;;;;5110899;28;20041;-52
2021/03/09 05:44:50;;;;;;;35.40;20.58;;;52.10;1945.60;;;;;;5110622;28;20053;-53
2021/03/09 05:47:16;;;;;;;31.20;17.48;;;76.80;1894.40;;;;;;5110765;28;20514;-50
2021/03/09 05:49:47;;;;;;;40.15;20.23;;;76.80;1920.00;;;;;;5110642;28;20032;-50
2021/03/09 05:52:16;;;;;;;72.85;43.28;;;77.00;1894.40;;;;;;5110802;28;20065;-50
2021/03/09 05:54:42;;;;;;;57.67;35.08;;;77.20;1868.80;;;;;;5110408;28;20027;-53
2021/03/09 05:57:08;;;;;;;37.42;22.83;;;77.10;1894.40;;;;;;5110523;28;20507;-51
2021/03/09 05:59:35;;;;;;;26.73;16.63;;;76.90;1920.00;;;;;;5092534;28;20016;-53
2021/03/09 06:02:02;;;;;;;28.38;16.48;;;77.10;1894.40;;;;;;5110295;28;20141;-52
2021/03/09 06:04:32;;;;;;;24.17;14.02;;;77.10;1894.40;;;;;;5110201;28;20102;-53
2021/03/09 06:06:58;;;;;;;26.67;15.38;;;77.30;1868.80;;;;;;5110452;28;20040;-54
2021/03/09 06:09:33;;;;;;;40.63;20.77;;;77.50;1843.20;;;;;;5110440;28;20031;-54
2021/03/09 06:12:19;;;;;;;128.70;67.70;;;77.50;1843.20;;;;;;5110690;28;20036;-55
2021/03/09 06:14:45;;;;;;;34.30;21.23;;;77.40;1868.80;;;;;;5114813;28;20031;-54
2021/03/09 06:17:23;;;;;;;26.65;16.13;;;77.70;1817.60;;;;;;5114483;28;20058;-54
2021/03/09 06:19:49;;;;;;;34.30;20.48;;;102.40;1843.20;;;;;;5096194;28;20031;-52
2021/03/09 06:22:16;;;;;;;37.33;20.23;;;102.50;1817.60;;;;;;5114869;28;20028;-53
2021/03/09 06:24:43;;;;;;;35.00;19.27;;;102.50;1792.00;;;;;;5114163;28;20035;-54
2021/03/09 06:27:30;;;;;;;36.25;21.20;;;102.60;1817.60;;;;;;5114465;28;20043;-56
2021/03/09 06:29:56;;;;;;;27.42;18.55;;;102.80;1792.00;;;;;;5114287;28;20489;-53
2021/03/09 06:32:23;;;;;;;35.05;22.13;;;102.90;1766.40;;;;;;5114071;28;20074;-55
2021/03/09 06:34:53;;;;;;;35.85;21.15;;;102.70;1817.60;;;;;;5096141;28;20015;-53
2021/03/09 06:37:26;;;;;;;33.15;20.10;;;103.10;1766.40;;;;;;5113950;28;20012;-52
2021/03/09 06:40:06;;;;;;;32.25;19.75;;;103.10;1766.40;;;;;;5114003;28;20073;-55
2021/03/09 06:42:38;;;;;;;33.28;21.08;;;103.30;1740.80;;;;;;5116584;28;20032;-56
2021/03/09 06:45:07;;;;;;;34.57;22.60;;;103.20;1740.80;;;;;;5116497;28;20027;-54
2021/03/09 06:47:43;;;;;;;36.17;22.60;;;128.00;1740.80;;;;;;5117011;28;20295;-55
2021/03/09 06:50:16;;;;;;;36.65;21.75;;;128.00;1766.40;;;;;;5115681;28;20040;-71
2021/03/09 06:52:43;;;;;;;36.47;21.35;;;128.30;1715.20;;;;;;5116591;28;20020;-58
2021/03/09 06:55:11;;;;;;;37.35;21.88;;;128.60;1689.60;;;;;;5115899;28;20126;-57
2021/03/09 06:57:37;;;;;;;30.92;18.15;;;128.40;1715.20;;;;;;5116092;28;20055;-55
2021/03/09 07:00:07;;;;;;;30.75;18.38;;;128.30;1740.80;;;;;;5115883;28;20106;-55
2021/03/09 07:02:33;;;;;;;29.75;19.23;;;128.10;1740.80;;;;;;5116100;28;20478;-54
2021/03/09 07:05:08;;;;;;;35.53;23.88;;;128.10;1766.40;;;;;;5115578;28;20032;-57
2021/03/09 07:07:35;;;;;;;43.03;26.58;;;128.70;1689.60;;;;;;5115519;28;20030;-52
2021/03/09 07:10:13;;;;;;;34.55;25.58;;;153.70;1638.40;;;;;;5113343;28;20462;-52
2021/03/09 07:12:43;;;;;;;43.58;29.77;;;154.00;1638.40;;;;;;5113175;28;20030;-52
2021/03/09 07:15:12;;;;;;;38.90;25.63;;;153.80;1664.00;;;;;;5113018;28;20024;-53
2021/03/09 07:17:39;;;;;;;48.03;29.88;;;153.90;1664.00;;;;;;5113550;28;20491;-51
2021/03/09 07:20:07;;;;;;;81.50;48.50;;;154.10;1638.40;;;;;;5106480;28;20059;-52
2021/03/09 07:22:35;;;;;;;248.18;144.25;;;179.20;1561.60;;;;;;5113176;28;20024;-53
2021/03/09 07:25:06;;;;;;;260.02;165.23;;;154.50;1536.00;;;;;;5112926;28;20108;-53
2021/03/09 07:27:40;;;;;;;199.50;125.38;;;179.20;1536.00;;;;;;5115745;28;20020;-52
2021/03/09 07:30:10;;;;;;;122.60;82.15;;;179.20;1536.00;;;;;;5116463;28;20376;-54
2021/03/09 07:35:58;;;;;;;93.57;63.47;;;179.30;1510.40;;;;;;5116044;28;20381;-56
2021/03/09 07:38:24;;;;;;;96.00;63.53;;;179.70;1484.80;;;;;;5116208;28;20496;-52
2021/03/09 07:40:50;;;;;;;74.43;50.53;;;180.00;1459.20;;;;;;5115839;28;20024;-54
2021/03/09 07:43:17;;;;;;;66.93;40.97;;;179.80;1484.80;;;;;;5116143;28;20042;-54
2021/03/09 07:45:43;;;;;;;66.95;45.30;;;179.90;1484.80;;;;;;5115966;28;20044;-54
2021/03/09 07:51:30;;;;;;;99.80;72.97;;;180.00;1484.80;;;;;;5115764;28;20446;-52
2021/03/09 07:54:13;;;;;;;197.27;125.10;;;180.00;1459.20;;;;;;5115868;28;20103;-51
2021/03/09 07:57:20;;;;;;;164.40;104.57;;;179.90;1459.20;;;;;;5115879;28;20081;-54
2021/03/09 07:59:55;;;;;;;164.60;103.55;;;179.50;1484.80;;;;;;5115519;28;20481;-52
2021/03/09 08:02:40;;;;;;;182.25;113.28;;;179.40;1510.40;;;;;;5115806;28;20039;-51
2021/03/09 08:05:13;;;;;;;200.23;124.82;;;179.30;1484.80;;;;;;5115206;28;20032;-50
2021/03/09 08:07:54;;;;;;;194.43;124.22;;;179.30;1510.40;;;;;;5115351;28;20023;-51
2021/03/09 08:10:41;;;;;;;182.10;123.65;;;179.70;1459.20;;;;;;5115178;28;20544;-52
2021/03/09 08:13:07;;;;;;;222.13;132.88;;;179.60;1484.80;;;;;;5115177;28;20034;-53
2021/03/09 08:15:34;;;;;;;198.20;130.65;;;179.80;1459.20;;;;;;5115270;28;20024;-52
2021/03/09 08:18:21;;;;;;;172.95;114.68;;;180.00;1433.60;;;;;;5094857;28;20073;-50
2021/03/09 08:20:53;;;;;;;141.68;94.60;;;180.00;1459.20;;;;;;5112298;28;20034;-52
2021/03/09 08:23:34;;;;;;;145.00;93.18;;;204.90;1433.60;;;;;;5112190;28;20023;-53
2021/03/09 08:26:01;;;;;;;153.63;96.63;;;180.00;1459.20;;;;;;5111583;28;20173;-50
2021/03/09 08:28:37;;;;;;;151.00;97.88;;;180.10;1459.20;;;;;;5112224;28;20016;-50
2021/03/09 08:31:27;;;;;;;137.93;82.63;;;204.90;1459.20;;;;;;5112223;28;20024;-51
2021/03/09 08:34:13;;;;;;;122.88;80.80;;;180.00;1459.20;;;;;;5112131;28;20125;-50
2021/03/09 08:36:39;;;;;;;143.52;96.15;;;179.80;1459.20;;;;;;5110855;28;20023;-54
2021/03/09 08:39:05;;;;;;;130.23;84.90;;;179.60;1484.80;;;;;;5112111;28;20027;-53
2021/03/09 08:41:43;;;;;;;157.35;96.38;;;179.80;1510.40;;;;;;5111638;28;20465;-52
2021/03/09 08:44:15;;;;;;;135.60;93.85;;;204.80;1484.80;;;;;;5111979;28;20035;-51
2021/03/09 08:47:03;;;;;;;157.80;101.10;;;205.10;1433.60;;;;;;5111508;28;20035;-51
2021/03/09 08:49:38;;;;;;;164.27;106.65;;;205.00;1408.00;;;;;;5111563;28;20027;-51
2021/03/09 08:52:09;;;;;;;133.02;86.75;;;205.10;1408.00;;;;;;5111718;28;20016;-50
2021/03/09 08:54:39;;;;;;;116.35;77.15;;;205.00;1408.00;;;;;;5111833;28;20161;-49
2021/03/09 08:57:24;;;;;;;115.93;74.05;;;205.30;1382.40;;;;;;5111474;28;20370;-49
2021/03/09 08:59:52;;;;;;;126.88;81.25;;;205.10;1408.00;;;;;;5102016;28;20019;-52
2021/03/09 09:02:20;;;;;;;127.78;79.85;;;205.10;1408.00;;;;;;5102842;28;20058;-50
2021/03/09 09:04:56;;;;;;;105.22;68.85;;;205.20;1408.00;;;;;;5100422;28;20032;-50
2021/03/09 09:07:36;;;;;;;107.22;70.63;;;204.80;1433.60;;;;;;5101225;28;20019;-50
2021/03/09 09:10:18;;;;;;;116.82;72.68;;;205.10;1408.00;;;;;;5101330;28;20073;-50
2021/03/09 09:12:46;;;;;;;98.40;64.32;;;205.50;1382.40;;;;;;5101352;28;20054;-49
2021/03/09 09:15:26;;;;;;;117.13;69.45;;;205.40;1356.80;;;;;;5101138;28;20024;-49
2021/03/09 09:18:00;;;;;;;110.68;68.82;;;230.70;1331.20;;;;;;5101691;28;20016;-51
2021/03/09 09:20:32;;;;;;;95.85;58.58;;;205.60;1382.40;;;;;;5102104;28;20020;-49
2021/03/09 09:23:06;;;;;;;79.70;52.80;;;230.50;1331.20;;;;;;5095232;28;20263;-50
2021/03/09 09:25:36;;;;;;;84.22;53.13;;;230.50;1305.60;;;;;;5102860;28;20035;-50
2021/03/09 09:28:02;;;;;;;88.25;56.15;;;205.50;1382.40;;;;;;5100975;28;20025;-52
2021/03/09 09:30:38;;;;;;;80.13;48.75;;;205.30;1382.40;;;;;;5107736;28;20031;-49
2021/03/09 09:33:05;;;;;;;60.30;34.53;;;205.70;1331.20;;;;;;5086459;28;20473;-50
2021/03/09 09:35:32;;;;;;;60.55;36.40;;;205.40;1331.20;;;;;;5100498;28;20024;-51
2021/03/09 09:38:06;;;;;;;53.42;35.38;;;205.60;1305.60;;;;;;5100039;28;20018;-50
2021/03/09 09:40:53;;;;;;;60.28;41.55;;;230.50;1305.60;;;;;;5102543;28;20027;-54
2021/03/09 09:43:21;;;;;;;91.82;58.78;;;230.40;1305.60;;;;;;5102740;28;20028;-51
2021/03/09 09:46:00;;;;;;;98.32;55.42;;;231.00;1280.00;;;;;;5102168;28;20032;-57
2021/03/09 09:48:32;;;;;;;85.10;54.85;;;231.00;1228.80;;;;;;5102185;28;20022;-50
2021/03/09 09:51:01;;;;;;;49.95;35.13;;;231.00;1228.80;;;;;;5102647;28;20030;-57
2021/03/09 09:53:40;;;;;;;56.95;34.50;;;230.90;1228.80;;;;;;5102910;28;20012;-51
2021/03/09 09:56:10;;;;;;;54.03;36.60;;;230.70;1254.40;;;;;;5102574;28;20393;-58
2021/03/09 09:59:08;;;;;;;49.60;39.47;;;230.60;1254.40;;;;;;5101838;28;20123;-58
2021/03/09 10:01:36;;;;;;;42.92;32.97;;;230.90;1228.80;;;;;;5029283;28;20025;-56
2021/03/09 10:04:03;;;;;;;58.30;37.50;;;230.70;1228.80;;;;;;5028603;28;20553;-52
2021/03/09 10:06:46;;;;;;;58.47;34.92;;;230.50;1254.40;;;;;;5028502;28;20033;-51
2021/03/09 10:09:18;;;;;;;40.40;27.52;;;230.90;1228.80;;;;;;5025701;28;20022;-50
2021/03/09 10:11:48;;;;;;;69.28;44.33;;;230.90;1228.80;;;;;;5024384;28;20030;-51
2021/03/09 10:14:14;;;;;;;74.45;47.35;;;231.10;1203.20;;;;;;5026887;28;20151;-50
2021/03/09 10:16:41;;;;;;;58.78;34.95;;;231.10;1203.20;;;;;;5026707;28;20040;-50
2021/03/09 10:19:09;;;;;;;41.50;28.38;;;231.10;1203.20;;;;;;5027179;28;20025;-49
2021/03/09 10:21:36;;;;;;;51.60;32.85;;;230.50;1254.40;;;;;;5027481;28;20522;-50
2021/03/09 10:24:03;;;;;;;51.72;33.58;;;205.70;1280.00;;;;;;5026575;28;20026;-49
2021/03/09 10:26:33;;;;;;;43.10;28.33;;;230.70;1254.40;;;;;;5027055;28;20042;-54
2021/03/09 10:29:19;;;;;;;70.13;43.80;;;230.90;1228.80;;;;;;5027030;28;20030;-56
2021/03/09 10:31:46;;;;;;;75.95;47.70;;;231.10;1228.80;;;;;;5007580;28;20030;-51
2021/03/09 10:34:14;;;;;;;57.47;37.53;;;231.20;1228.80;;;;;;5007699;28;20112;-51
2021/03/09 10:36:50;;;;;;;89.57;51.28;;;230.90;1280.00;;;;;;5032389;28;20105;-49
2021/03/09 10:39:16;;;;;;;73.88;47.78;;;231.10;1254.40;;;;;;5089761;28;20024;-49
2021/03/09 10:41:42;;;;;;;66.05;47.38;;;231.00;1280.00;;;;;;5089775;28;20024;-50
2021/03/09 10:44:26;;;;;;;52.72;35.05;;;231.00;1280.00;;;;;;5089716;28;20531;-51
2021/03/09 10:46:52;;;;;;;52.10;31.80;;;231.00;1280.00;;;;;;5089624;28;20036;-50
2021/03/09 10:49:17;;;;;;;56.30;33.97;;;230.60;1305.60;;;;;;5071464;28;20029;-50
2021/03/09 10:51:43;;;;;;;47.88;31.27;;;230.80;1305.60;;;;;;5089756;28;20024;-51
2021/03/09 10:54:10;;;;;;;63.45;42.22;;;231.20;1280.00;;;;;;5089241;28;20494;-51
2021/03/09 10:56:36;;;;;;;75.90;52.13;;;256.10;1254.40;;;;;;5098889;28;20115;-50
2021/03/09 10:59:03;;;;;;;62.75;36.83;;;256.10;1254.40;;;;;;5102367;28;20131;-49
2021/03/09 11:01:32;;;;;;;54.55;36.95;;;256.50;1228.80;;;;;;5105339;28;20035;-50
2021/03/09 11:03:58;;;;;;;85.45;63.67;;;256.10;1280.00;;;;;;5097631;28;20032;-55
2021/03/09 11:06:24;;;;;;;63.22;42.65;;;256.40;1254.40;;;;;;5093366;28;20823;-50
2021/03/09 11:08:50;;;;;;;67.30;40.25;;;256.50;1254.40;;;;;;5093177;28;20020;-51
2021/03/09 11:11:15;;;;;;;65.40;37.60;;;256.50;1228.80;;;;;;5093178;28;20354;-52
2021/03/09 11:13:41;;;;;;;66.53;42.45;;;256.10;1280.00;;;;;;5092926;28;20024;-51
2021/03/09 11:16:07;;;;;;;113.07;72.55;;;256.20;1280.00;;;;;;5093148;28;20226;-51
2021/03/09 11:18:32;;;;;;;62.50;41.63;;;256.30;1280.00;;;;;;5093048;28;20024;-52
2021/03/09 11:20:58;;;;;;;86.10;59.25;;;256.30;1280.00;;;;;;5092630;28;20028;-53
2021/03/09 11:23:24;;;;;;;57.00;37.28;;;256.70;1228.80;;;;;;5092837;28;20481;-53
2021/03/09 11:25:50;;;;;;;72.15;43.50;;;256.80;1203.20;;;;;;5092796;28;20047;-51
2021/03/09 11:28:16;;;;;;;69.53;48.92;;;256.80;1203.20;;;;;;5092830;28;20024;-52
2021/03/09 11:30:42;;;;;;;62.78;42.25;;;256.30;1228.80;;;;;;5092859;28;20536;-54
2021/03/09 11:33:07;;;;;;;42.58;31.60;;;256.30;1254.40;;;;;;5092766;28;20023;-50
2021/03/09 11:35:33;;;;;;;55.00;37.33;;;256.00;1254.40;;;;;;5092885;28;20043;-57
2021/03/09 11:37:59;;;;;;;74.15;44.08;;;231.00;1280.00;;;;;;5092878;28;20110;-56
2021/03/09 11:40:25;;;;;;;67.93;44.35;;;230.90;1305.60;;;;;;5092805;28;20032;-53
2021/03/09 11:42:50;;;;;;;52.70;37.58;;;230.80;1331.20;;;;;;5092577;28;20054;-56
2021/03/09 11:45:16;;;;;;;132.15;74.53;;;231.10;1280.00;;;;;;5094176;28;20032;-53
2021/03/09 11:47:42;;;;;;;108.57;64.38;;;231.10;1305.60;;;;;;5101034;28;20472;-54
2021/03/09 11:50:08;;;;;;;58.50;41.42;;;231.10;1331.20;;;;;;5103076;28;20023;-54
2021/03/09 11:52:34;;;;;;;55.45;35.35;;;230.80;1356.80;;;;;;5101855;28;20023;-56
2021/03/09 11:55:00;;;;;;;52.30;35.13;;;231.00;1331.20;;;;;;5101234;28;20366;-55
2021/03/09 11:57:26;;;;;;;82.88;49.92;;;230.90;1331.20;;;;;;5102820;28;20051;-53
2021/03/09 11:59:51;;;;;;;47.70;31.73;;;230.80;1356.80;;;;;;5100828;28;20115;-54
2021/03/09 12:02:17;;;;;;;45.33;30.00;;;230.50;1382.40;;;;;;5101789;28;20034;-51
2021/03/09 12:04:43;;;;;;;49.92;34.60;;;230.80;1356.80;;;;;;5102515;28;20032;-55
2021/03/09 12:07:08;;;;;;;53.30;36.70;;;230.50;1382.40;;;;;;5100339;28;20024;-53
2021/03/09 12:09:34;;;;;;;65.72;48.97;;;230.50;1382.40;;;;;;5102138;28;20031;-55
2021/03/09 12:12:00;;;;;;;58.28;36.50;;;230.50;1408.00;;;;;;5098235;28;20032;-53
2021/03/09 12:14:25;;;;;;;57.38;36.22;;;230.60;1382.40;;;;;;5091339;28;20020;-53
2021/03/09 12:16:51;;;;;;;78.93;48.08;;;230.70;1382.40;;;;;;5102832;28;20027;-54
2021/03/09 12:19:17;;;;;;;88.22;50.92;;;230.90;1356.80;;;;;;5111433;28;20024;-57